createdAt,value
2023-05-21T00:02:17.518Z,3.87
2023-05-21T00:04:44.904Z,3.70
2023-05-21T00:07:11.652Z,3.83
2023-05-21T00:09:38.592Z,3.23
2023-05-21T00:12:06.519Z,3.80
2023-05-21T00:14:33.370Z,3.77
2023-05-21T00:16:59.844Z,3.60
2023-05-21T00:19:27.220Z,3.37
2023-05-21T00:21:54.760Z,3.83
2023-05-21T00:24:21.297Z,3.53
2023-05-21T00:26:47.825Z,3.73
2023-05-21T00:29:14.421Z,3.47
2023-05-21T00:31:41.022Z,3.97
2023-05-21T00:34:07.575Z,3.43
2023-05-21T00:36:34.743Z,3.40
2023-05-21T00:39:02.361Z,3.53
2023-05-21T00:41:30.177Z,3.63
2023-05-21T00:44:00.269Z,3.20
2023-05-21T00:46:28.541Z,3.70
2023-05-21T00:48:55.117Z,3.80
2023-05-21T00:51:21.971Z,3.87
2023-05-21T00:53:51.371Z,3.47
2023-05-21T00:56:19.550Z,3.17
2023-05-21T00:58:46.267Z,4.00
2023-05-21T01:01:14.013Z,3.63
2023-05-21T01:03:41.070Z,4.00
2023-05-21T01:06:09.043Z,3.70
2023-05-21T01:08:38.941Z,3.50
2023-05-21T01:11:06.906Z,3.53
2023-05-21T01:13:37.026Z,3.70
2023-05-21T01:16:06.566Z,3.63
2023-05-21T01:18:35.230Z,3.73
2023-05-21T01:21:02.420Z,3.77
2023-05-21T01:23:29.280Z,4.03
2023-05-21T01:25:56.068Z,3.73
2023-05-21T01:28:22.555Z,3.77
2023-05-21T01:30:49.077Z,3.70
2023-05-21T01:33:18.902Z,3.23
2023-05-21T01:35:51.843Z,3.43
2023-05-21T01:38:48.125Z,3.33
2023-05-21T01:41:18.352Z,3.13
2023-05-21T01:43:46.545Z,3.57
2023-05-21T01:46:16.548Z,3.70
2023-05-21T01:48:43.962Z,3.37
2023-05-21T01:51:10.776Z,3.37
2023-05-21T01:53:40.615Z,3.10
2023-05-21T01:56:07.770Z,3.80
2023-05-21T01:58:34.453Z,3.47
2023-05-21T02:01:00.968Z,3.23
2023-05-21T02:03:28.535Z,3.97
2023-05-21T02:05:55.765Z,3.33
2023-05-21T02:08:23.270Z,3.30
2023-05-21T02:10:50.261Z,3.23
2023-05-21T02:13:20.378Z,3.40
2023-05-21T02:15:47.273Z,3.13
2023-05-21T02:18:16.634Z,3.20
2023-05-21T02:20:43.697Z,3.33
2023-05-21T02:23:10.207Z,3.53
2023-05-21T02:25:37.103Z,3.33
2023-05-21T02:28:04.148Z,3.17
2023-05-21T02:30:30.911Z,3.40
2023-05-21T02:32:59.106Z,3.07
2023-05-21T02:35:26.041Z,3.60
2023-05-21T02:37:52.574Z,2.87
2023-05-21T02:40:19.178Z,3.07
2023-05-21T02:42:45.754Z,2.80
2023-05-21T02:45:12.988Z,3.20
2023-05-21T02:47:39.705Z,2.90
2023-05-21T02:50:07.805Z,3.03
2023-05-21T02:52:34.431Z,2.80
2023-05-21T02:55:01.227Z,2.50
2023-05-21T02:57:27.796Z,3.17
2023-05-21T02:59:54.376Z,3.10
2023-05-21T03:02:21.027Z,3.30
2023-05-21T03:04:47.871Z,3.10
2023-05-21T03:07:15.506Z,3.20
2023-05-21T03:09:42.577Z,2.50
2023-05-21T03:12:10.037Z,3.37
2023-05-21T03:14:36.850Z,2.87
2023-05-21T03:17:06.123Z,3.07
2023-05-21T03:19:36.806Z,3.30
2023-05-21T03:22:04.571Z,3.23
2023-05-21T03:24:31.767Z,3.40
2023-05-21T03:26:59.285Z,3.23
2023-05-21T03:29:25.857Z,3.17
2023-05-21T03:31:53.923Z,3.07
2023-05-21T03:34:20.830Z,3.60
2023-05-21T03:36:47.934Z,3.43
2023-05-21T03:39:15.071Z,3.40
2023-05-21T03:41:42.343Z,3.73
2023-05-21T03:44:09.021Z,3.53
2023-05-21T03:46:36.062Z,2.93
2023-05-21T03:49:02.785Z,3.67
2023-05-21T03:51:30.619Z,3.53
2023-05-21T03:54:00.274Z,3.57
2023-05-21T03:56:26.849Z,3.43
2023-05-21T03:58:53.341Z,3.20
2023-05-21T04:01:20.010Z,3.37
2023-05-21T04:03:47.060Z,3.37
2023-05-21T04:06:13.771Z,3.33
2023-05-21T04:08:40.266Z,3.20
2023-05-21T04:11:06.861Z,3.80
2023-05-21T04:13:33.344Z,3.60
2023-05-21T04:15:59.986Z,3.87
2023-05-21T04:18:26.851Z,3.67
2023-05-21T04:20:53.837Z,4.23
2023-05-21T04:23:23.546Z,3.73
2023-05-21T04:25:50.929Z,3.20
2023-05-21T04:28:21.066Z,4.20
2023-05-21T04:30:48.033Z,3.30
2023-05-21T04:33:18.205Z,3.53
2023-05-21T04:35:47.380Z,3.50
2023-05-21T04:38:14.232Z,3.40
2023-05-21T04:40:40.951Z,3.07
2023-05-21T04:43:08.261Z,3.23
2023-05-21T04:45:35.211Z,3.27
2023-05-21T04:48:02.765Z,3.20
2023-05-21T04:50:31.963Z,3.40
2023-05-21T04:52:59.633Z,3.37
2023-05-21T04:55:27.484Z,3.00
2023-05-21T04:57:54.047Z,3.30
2023-05-21T05:00:21.444Z,3.50
2023-05-21T05:02:48.018Z,2.97
2023-05-21T05:05:14.783Z,2.87
2023-05-21T05:07:41.633Z,3.07
2023-05-21T05:10:08.432Z,3.10
2023-05-21T05:12:35.206Z,2.77
2023-05-21T05:15:01.951Z,2.83
2023-05-21T05:17:28.678Z,2.80
2023-05-21T05:19:55.283Z,2.37
2023-05-21T05:22:21.819Z,2.57
2023-05-21T05:24:48.476Z,2.90
2023-05-21T05:27:15.119Z,2.90
2023-05-21T05:29:41.710Z,3.00
2023-05-21T05:32:08.308Z,2.47
2023-05-21T05:34:34.997Z,2.93
2023-05-21T05:37:02.910Z,2.60
2023-05-21T05:39:29.435Z,2.30
2023-05-21T05:41:56.006Z,2.23
2023-05-21T05:44:22.528Z,2.23
2023-05-21T05:46:49.123Z,2.47
2023-05-21T05:49:15.750Z,2.37
2023-05-21T05:51:42.465Z,2.60
2023-05-21T05:54:09.031Z,2.40
2023-05-21T05:56:35.598Z,2.20
2023-05-21T05:59:02.132Z,2.33
2023-05-21T06:01:28.754Z,2.90
2023-05-21T06:03:55.328Z,2.60
2023-05-21T06:06:21.949Z,2.77
2023-05-21T06:08:48.710Z,2.70
2023-05-21T06:11:19.182Z,2.33
2023-05-21T06:13:46.221Z,2.30
2023-05-21T06:16:12.940Z,2.00
2023-05-21T06:18:39.588Z,2.20
2023-05-21T06:21:06.473Z,2.20
2023-05-21T06:23:33.285Z,2.27
2023-05-21T06:25:59.926Z,2.20
2023-05-21T06:28:26.656Z,2.20
2023-05-21T06:30:53.518Z,2.30
2023-05-21T06:33:20.213Z,2.10
2023-05-21T06:35:46.956Z,2.10
2023-05-21T06:38:13.695Z,2.17
2023-05-21T06:40:40.457Z,2.10
2023-05-21T06:43:07.328Z,2.70
2023-05-21T06:45:34.135Z,2.00
2023-05-21T06:48:00.859Z,2.42
2023-05-21T06:50:27.762Z,2.20
2023-05-21T06:52:54.614Z,2.27
2023-05-21T06:55:21.355Z,2.40
2023-05-21T06:57:47.935Z,2.40
2023-05-21T07:00:15.005Z,2.30
2023-05-21T07:02:41.620Z,1.95
2023-05-21T07:05:08.871Z,2.10
2023-05-21T07:07:35.393Z,2.20
2023-05-21T07:10:01.954Z,1.80
2023-05-21T07:12:28.488Z,1.90
2023-05-21T07:14:55.788Z,2.20
2023-05-21T07:17:23.660Z,2.47
2023-05-21T07:19:50.347Z,1.83
2023-05-21T07:22:16.851Z,2.35
2023-05-21T07:24:43.410Z,2.35
2023-05-21T07:27:24.849Z,2.50
2023-05-21T07:29:52.593Z,2.10
2023-05-21T07:32:19.165Z,2.30
2023-05-21T07:34:45.743Z,1.80
2023-05-21T07:37:12.953Z,2.43
2023-05-21T07:39:39.957Z,2.33
2023-05-21T07:42:06.498Z,2.17
2023-05-21T07:44:33.111Z,2.00
2023-05-21T07:46:59.726Z,2.00
2023-05-21T07:49:26.287Z,2.10
2023-05-21T07:51:52.804Z,1.80
2023-05-21T07:54:19.809Z,2.20
2023-05-21T07:56:46.658Z,1.80
2023-05-21T07:59:14.528Z,2.00
2023-05-21T08:01:41.183Z,2.23
2023-05-21T08:04:07.936Z,1.83
2023-05-21T08:06:34.889Z,1.90
2023-05-21T08:09:06.365Z,1.80
2023-05-21T08:11:33.355Z,1.97
2023-05-21T08:14:00.355Z,1.90
2023-05-21T08:16:27.089Z,1.90
2023-05-21T08:18:53.905Z,2.10
2023-05-21T08:21:20.968Z,2.27
2023-05-21T08:23:47.632Z,2.10
2023-05-21T08:26:16.528Z,1.73
2023-05-21T08:28:43.428Z,1.80
2023-05-21T08:31:10.333Z,2.10
2023-05-21T08:33:39.878Z,1.63
2023-05-21T08:36:06.941Z,1.87
2023-05-21T08:38:36.916Z,1.73
2023-05-21T08:41:05.236Z,1.60
2023-05-21T08:43:31.866Z,1.43
2023-05-21T08:46:00.746Z,1.70
2023-05-21T08:48:27.358Z,1.30
2023-05-21T08:50:54.852Z,1.83
2023-05-21T08:53:28.549Z,1.77
2023-05-21T08:55:56.328Z,1.70
2023-05-21T08:58:23.027Z,1.50
2023-05-21T09:00:49.800Z,1.50
2023-05-21T09:03:16.685Z,1.60
2023-05-21T09:05:44.556Z,1.70
2023-05-21T09:08:15.279Z,1.90
2023-05-21T09:10:52.070Z,1.60
2023-05-21T09:13:19.530Z,1.47
2023-05-21T09:15:47.035Z,1.57
2023-05-21T09:18:14.430Z,1.83
2023-05-21T09:20:41.317Z,1.20
2023-05-21T09:23:16.982Z,2.03
2023-05-21T09:25:47.759Z,1.77
2023-05-21T09:28:15.835Z,1.67
2023-05-21T09:30:52.268Z,1.50
2023-05-21T09:33:26.288Z,1.50
2023-05-21T09:35:53.047Z,1.60
2023-05-21T09:38:22.568Z,1.80
2023-05-21T09:40:49.347Z,1.50
2023-05-21T09:43:16.468Z,1.80
2023-05-21T09:45:53.457Z,1.77
2023-05-21T09:48:42.107Z,2.10
2023-05-21T09:51:12.774Z,1.70
2023-05-21T09:53:48.809Z,1.87
2023-05-21T09:56:16.972Z,1.60
2023-05-21T09:58:43.965Z,1.80
2023-05-21T10:01:11.149Z,1.63
2023-05-21T10:03:40.070Z,1.87
2023-05-21T10:06:09.317Z,2.07
2023-05-21T10:08:37.466Z,1.73
2023-05-21T10:11:06.003Z,2.10
2023-05-21T10:13:34.579Z,1.80
2023-05-21T10:16:03.237Z,1.90
2023-05-21T10:18:31.068Z,1.80
2023-05-21T10:20:59.022Z,1.83
2023-05-21T10:23:26.113Z,1.67
2023-05-21T10:25:53.069Z,1.87
2023-05-21T10:28:20.455Z,1.83
2023-05-21T10:30:47.180Z,2.00
2023-05-21T10:33:19.238Z,1.63
2023-05-21T10:35:48.203Z,1.90
2023-05-21T10:38:15.827Z,1.67
2023-05-21T10:40:42.381Z,1.80
2023-05-21T10:43:18.036Z,2.10
2023-05-21T10:46:20.034Z,1.73
2023-05-21T10:49:11.719Z,1.70
2023-05-21T10:51:50.832Z,1.80
2023-05-21T10:54:36.135Z,1.60
2023-05-21T10:57:13.329Z,2.20
2023-05-21T10:59:43.542Z,2.30
2023-05-21T11:02:11.907Z,2.20
2023-05-21T11:04:39.994Z,2.13
2023-05-21T11:07:06.855Z,1.80
2023-05-21T11:09:33.393Z,2.00
2023-05-21T11:12:00.866Z,1.70
2023-05-21T11:14:35.671Z,2.10
2023-05-21T11:17:03.311Z,2.07
2023-05-21T11:19:36.133Z,1.97
2023-05-21T11:22:07.735Z,2.50
2023-05-21T11:24:37.471Z,2.07
2023-05-21T11:27:05.053Z,2.10
2023-05-21T11:29:33.498Z,1.90
2023-05-21T11:32:05.554Z,1.80
2023-05-21T11:34:52.383Z,2.00
2023-05-21T11:37:18.974Z,2.27
2023-05-21T11:39:45.637Z,2.80
2023-05-21T11:42:12.442Z,1.87
2023-05-21T11:44:46.427Z,1.80
2023-05-21T11:47:21.516Z,1.90
2023-05-21T11:49:49.445Z,2.00
2023-05-21T11:52:16.050Z,1.90
2023-05-21T11:54:46.303Z,2.20
2023-05-21T11:57:17.244Z,2.00
2023-05-21T11:59:44.788Z,2.10
2023-05-21T12:02:16.549Z,2.10
2023-05-21T12:04:43.341Z,1.87
2023-05-21T12:07:11.047Z,2.20
2023-05-21T12:09:49.268Z,2.03
2023-05-21T12:12:21.460Z,1.80
2023-05-21T12:14:52.260Z,1.80
2023-05-21T12:17:23.157Z,2.10
2023-05-21T12:19:52.136Z,1.70
2023-05-21T12:22:18.963Z,1.83
2023-05-21T12:24:46.277Z,2.13
2023-05-21T12:27:13.513Z,2.00
2023-05-21T12:29:42.680Z,1.97
2023-05-21T12:32:13.890Z,1.93
2023-05-21T12:34:48.789Z,1.50
2023-05-21T12:37:22.522Z,1.80
2023-05-21T12:39:50.964Z,2.27
2023-05-21T12:42:23.758Z,2.00
2023-05-21T12:44:52.673Z,1.40
2023-05-21T12:47:19.361Z,1.77
2023-05-21T12:49:48.211Z,1.80
2023-05-21T12:52:15.984Z,1.63
2023-05-21T12:54:45.278Z,1.97
2023-05-21T12:57:16.140Z,1.73
2023-05-21T12:59:46.789Z,1.77
2023-05-21T13:02:23.985Z,1.90
2023-05-21T13:05:04.642Z,2.00
2023-05-21T13:07:32.524Z,1.93
2023-05-21T13:10:00.294Z,2.10
2023-05-21T13:12:28.141Z,2.00
2023-05-21T13:14:59.143Z,1.80
2023-05-21T13:17:27.355Z,1.70
2023-05-21T13:20:15.278Z,1.40
2023-05-21T13:22:45.166Z,1.87
2023-05-21T13:25:12.293Z,2.10
2023-05-21T13:27:39.555Z,1.90
2023-05-21T13:30:07.069Z,2.00
2023-05-21T13:32:34.161Z,1.70
2023-05-21T13:35:00.959Z,2.23
2023-05-21T13:37:27.871Z,1.90
2023-05-21T13:39:54.816Z,1.70
2023-05-21T13:42:21.557Z,2.50
2023-05-21T13:44:48.419Z,2.13
2023-05-21T13:47:15.214Z,2.10
2023-05-21T13:49:42.364Z,1.90
2023-05-21T13:52:09.381Z,1.87
2023-05-21T13:54:36.860Z,1.80
2023-05-21T13:57:04.308Z,1.70
2023-05-21T13:59:33.452Z,1.70
2023-05-21T14:02:00.927Z,1.60
2023-05-21T14:04:27.734Z,1.87
2023-05-21T14:06:54.362Z,1.70
2023-05-21T14:10:18.052Z,1.60
2023-05-21T14:12:46.023Z,1.60
2023-05-21T14:15:12.809Z,1.63
2023-05-21T14:17:40.337Z,1.73
2023-05-21T14:20:07.773Z,2.00
2023-05-21T14:22:34.306Z,1.80
2023-05-21T14:25:01.188Z,1.80
2023-05-21T14:27:27.731Z,1.63
2023-05-21T14:29:54.252Z,2.00
2023-05-21T14:32:21.021Z,2.03
2023-05-21T14:34:47.573Z,1.80
2023-05-21T14:37:14.125Z,1.80
2023-05-21T14:39:40.746Z,1.87
2023-05-21T14:42:07.242Z,2.40
2023-05-21T14:44:33.831Z,2.20
2023-05-21T14:47:00.412Z,1.70
2023-05-21T14:49:26.924Z,1.70
2023-05-21T14:51:53.501Z,1.97
2023-05-21T14:54:20.030Z,1.97
2023-05-21T14:56:46.671Z,1.73
2023-05-21T14:59:14.294Z,2.13
2023-05-21T15:01:40.909Z,1.93
2023-05-21T15:04:08.133Z,1.63
2023-05-21T15:06:34.908Z,1.90
2023-05-21T15:09:01.538Z,1.77
2023-05-21T15:11:28.176Z,1.80
2023-05-21T15:13:54.748Z,1.83
2023-05-21T15:16:21.330Z,1.87
2023-05-21T15:18:48.042Z,1.70
2023-05-21T15:21:14.790Z,1.77
2023-05-21T15:23:42.118Z,1.97
2023-05-21T15:26:09.233Z,1.60
2023-05-21T15:28:35.983Z,1.90
2023-05-21T15:31:02.779Z,1.60
2023-05-21T15:33:29.553Z,1.73
2023-05-21T15:35:56.196Z,1.80
2023-05-21T15:38:22.874Z,2.13
2023-05-21T15:40:49.488Z,1.73
2023-05-21T15:43:16.195Z,1.80
2023-05-21T15:45:42.935Z,1.80
2023-05-21T15:48:09.876Z,1.77
2023-05-21T15:50:37.670Z,2.00
2023-05-21T15:53:04.837Z,1.80
2023-05-21T15:55:34.701Z,2.30
2023-05-21T15:58:03.298Z,1.83
2023-05-21T16:00:29.938Z,2.10
2023-05-21T16:02:56.738Z,6.70
2023-05-21T16:05:23.329Z,2.00
2023-05-21T16:07:50.254Z,1.90
2023-05-21T16:10:17.001Z,1.80
2023-05-21T16:12:43.569Z,1.60
2023-05-21T16:15:10.834Z,2.10
2023-05-21T16:17:37.547Z,1.80
2023-05-21T16:20:04.605Z,2.00
2023-05-21T16:22:31.440Z,1.80
2023-05-21T16:24:58.121Z,2.20
2023-05-21T16:27:25.156Z,1.60
2023-05-21T16:29:51.759Z,1.67
2023-05-21T16:32:18.483Z,1.53
2023-05-21T16:34:45.134Z,1.53
2023-05-21T16:37:11.778Z,2.00
2023-05-21T16:39:38.454Z,2.00
2023-05-21T16:42:05.075Z,2.00
2023-05-21T16:44:32.207Z,1.90
2023-05-21T16:46:59.432Z,1.70
2023-05-21T16:49:26.725Z,1.70
2023-05-21T16:51:53.429Z,2.00
2023-05-21T16:54:19.997Z,1.97
2023-05-21T16:56:46.528Z,2.07
2023-05-21T16:59:13.156Z,1.90
2023-05-21T17:01:39.790Z,2.07
2023-05-21T17:04:06.429Z,1.63
2023-05-21T17:06:34.033Z,1.73
2023-05-21T17:09:00.537Z,1.80
2023-05-21T17:11:27.152Z,2.10
2023-05-21T17:13:53.726Z,2.23
2023-05-21T17:16:20.417Z,2.00
2023-05-21T17:18:46.968Z,2.03
2023-05-21T17:21:13.776Z,2.00
2023-05-21T17:23:42.766Z,2.10
2023-05-21T17:26:09.747Z,2.23
2023-05-21T17:28:36.658Z,2.03
2023-05-21T17:31:03.364Z,2.27
2023-05-21T17:33:30.269Z,1.83
2023-05-21T17:35:57.162Z,1.87
2023-05-21T17:38:23.787Z,2.20
2023-05-21T17:40:50.656Z,2.30
2023-05-21T17:43:17.762Z,2.03
2023-05-21T17:45:44.492Z,1.90
2023-05-21T17:48:11.947Z,2.13
2023-05-21T17:50:38.789Z,2.13
2023-05-21T17:53:05.349Z,1.80
2023-05-21T17:55:31.933Z,2.07
2023-05-21T17:57:58.908Z,2.13
2023-05-21T18:00:25.809Z,2.40
2023-05-21T18:02:52.384Z,2.47
2023-05-21T18:05:18.996Z,2.03
2023-05-21T18:07:45.884Z,2.30
2023-05-21T18:10:12.607Z,2.20
2023-05-21T18:12:39.489Z,2.10
2023-05-21T18:15:06.711Z,2.10
2023-05-21T18:17:33.346Z,2.53
2023-05-21T18:20:00.066Z,2.40
2023-05-21T18:22:26.748Z,2.40
2023-05-21T18:24:53.248Z,2.10
2023-05-21T18:27:19.995Z,2.17
2023-05-21T18:29:48.966Z,2.43
2023-05-21T18:32:16.705Z,2.77
2023-05-21T18:34:44.103Z,2.00
2023-05-21T18:37:10.949Z,2.27
2023-05-21T18:39:37.476Z,2.40
2023-05-21T18:42:12.865Z,2.73
2023-05-21T18:44:40.775Z,2.20
2023-05-21T18:47:08.240Z,2.10
2023-05-21T18:49:36.062Z,2.53
2023-05-21T18:52:03.887Z,2.23
2023-05-21T18:54:30.903Z,2.30
2023-05-21T18:57:00.155Z,2.50
2023-05-21T18:59:28.167Z,2.27
2023-05-21T19:01:55.032Z,2.30
2023-05-21T19:04:21.681Z,2.70
2023-05-21T19:06:48.442Z,3.03
2023-05-21T19:09:15.120Z,2.80
2023-05-21T19:11:41.638Z,2.63
2023-05-21T19:14:08.236Z,2.50
2023-05-21T19:16:34.786Z,2.73
2023-05-21T19:19:02.006Z,2.83
2023-05-21T19:21:28.671Z,3.00
2023-05-21T19:23:55.223Z,3.10
2023-05-21T19:26:22.761Z,3.00
2023-05-21T19:28:53.285Z,3.03
2023-05-21T19:31:20.566Z,3.13
2023-05-21T19:33:47.149Z,3.23
2023-05-21T19:36:14.266Z,3.30
2023-05-21T19:38:50.640Z,3.20
2023-05-21T19:41:18.112Z,3.30
2023-05-21T19:43:45.228Z,3.10
2023-05-21T19:46:11.938Z,2.47
2023-05-21T19:48:39.029Z,3.07
2023-05-21T19:51:05.708Z,2.77
2023-05-21T19:53:32.233Z,2.60
2023-05-21T19:55:58.726Z,2.60
2023-05-21T19:58:26.917Z,2.30
2023-05-21T20:00:58.308Z,2.47
2023-05-21T20:03:26.492Z,2.40
2023-05-21T20:05:53.380Z,2.87
2023-05-21T20:08:20.475Z,2.83
2023-05-21T20:10:49.558Z,2.70
2023-05-21T20:13:18.102Z,2.63
2023-05-21T20:15:44.622Z,2.80
2023-05-21T20:18:12.747Z,3.00
2023-05-21T20:20:40.789Z,3.23
2023-05-21T20:23:07.996Z,3.20
2023-05-21T20:25:34.528Z,3.53
2023-05-21T20:28:01.500Z,3.27
2023-05-21T20:30:34.391Z,3.23
2023-05-21T20:33:02.151Z,4.10
2023-05-21T20:35:29.147Z,4.20
2023-05-21T20:37:55.982Z,3.37
2023-05-21T20:40:22.645Z,3.57
2023-05-21T20:42:51.863Z,3.90
2023-05-21T20:45:18.771Z,3.67
2023-05-21T20:47:45.508Z,3.73
2023-05-21T20:50:12.192Z,3.20
2023-05-21T20:52:38.983Z,3.30
2023-05-21T20:55:06.050Z,3.60
2023-05-21T20:57:32.618Z,3.03
2023-05-21T20:59:59.220Z,3.40
2023-05-21T21:02:25.842Z,3.77
2023-05-21T21:04:53.782Z,4.07
2023-05-21T21:07:20.461Z,3.30
2023-05-21T21:09:48.220Z,3.70
2023-05-21T21:12:25.878Z,3.40
2023-05-21T21:14:53.666Z,3.93
2023-05-21T21:17:20.569Z,3.80
2023-05-21T21:19:47.300Z,3.60
2023-05-21T21:22:14.922Z,4.13
2023-05-21T21:24:41.681Z,3.70
2023-05-21T21:27:08.457Z,3.53
2023-05-21T21:29:35.062Z,3.60
2023-05-21T21:32:01.659Z,4.57
2023-05-21T21:34:28.422Z,4.47
2023-05-21T21:36:54.968Z,4.30
2023-05-21T21:39:21.503Z,4.13
2023-05-21T21:41:48.014Z,3.90
2023-05-21T21:44:14.747Z,4.07
2023-05-21T21:46:41.251Z,4.53
2023-05-21T21:49:07.843Z,3.13
2023-05-21T21:51:34.925Z,3.50
2023-05-21T21:54:01.439Z,4.33
2023-05-21T21:56:29.382Z,3.67
2023-05-21T21:58:56.028Z,3.90
2023-05-21T22:01:22.621Z,4.20
2023-05-21T22:03:49.396Z,3.87
2023-05-21T22:06:16.074Z,3.63
2023-05-21T22:08:42.661Z,4.10
2023-05-21T22:11:09.214Z,3.97
2023-05-21T22:13:35.800Z,4.80
2023-05-21T22:16:02.684Z,4.03
2023-05-21T22:18:40.095Z,3.80
2023-05-21T22:21:11.036Z,4.13
2023-05-21T22:23:38.454Z,4.20
2023-05-21T22:26:05.254Z,3.80
2023-05-21T22:28:32.083Z,3.83
2023-05-21T22:30:59.125Z,4.30
2023-05-21T22:33:26.640Z,4.10
2023-05-21T22:35:54.210Z,4.33
2023-05-21T22:38:20.964Z,4.07
2023-05-21T22:40:47.550Z,4.47
2023-05-21T22:43:14.143Z,4.47
2023-05-21T22:45:40.664Z,4.40
2023-05-21T22:48:07.554Z,4.10
2023-05-21T22:50:34.364Z,4.07
2023-05-21T22:53:00.912Z,4.03
2023-05-21T22:55:27.447Z,3.70
2023-05-21T22:57:54.040Z,4.57
2023-05-21T23:00:20.717Z,4.60
2023-05-21T23:02:47.677Z,3.87
2023-05-21T23:05:14.591Z,4.40
2023-05-21T23:07:41.376Z,4.50
2023-05-21T23:10:08.856Z,3.97
2023-05-21T23:12:36.880Z,4.07
2023-05-21T23:15:04.876Z,3.70
2023-05-21T23:17:31.668Z,3.80
2023-05-21T23:19:59.365Z,4.60
2023-05-21T23:22:26.250Z,4.67
2023-05-21T23:24:54.181Z,4.10
2023-05-21T23:27:20.858Z,4.03
2023-05-21T23:29:47.456Z,4.10
2023-05-21T23:32:14.027Z,4.50
2023-05-21T23:34:41.904Z,4.37
2023-05-21T23:37:08.464Z,3.70
2023-05-21T23:39:35.038Z,4.17
2023-05-21T23:42:01.576Z,4.47
2023-05-21T23:44:28.048Z,4.13
2023-05-21T23:46:54.588Z,4.10
2023-05-21T23:49:21.091Z,4.10
2023-05-21T23:51:50.561Z,4.30
2023-05-21T23:54:17.489Z,4.17
2023-05-21T23:56:44.045Z,4.30
2023-05-21T23:59:10.924Z,4.27
